createdAt,value
2017-07-26T00:02:19.095Z,14.80
2017-07-26T00:04:46.675Z,7.57
2017-07-26T00:07:14.188Z,5.90
2017-07-26T00:09:41.716Z,5.93
2017-07-26T00:12:16.280Z,13.37
2017-07-26T00:14:43.791Z,8.23
2017-07-26T00:17:11.318Z,7.60
2017-07-26T00:19:39.208Z,11.63
2017-07-26T00:22:06.732Z,8.20
2017-07-26T00:24:34.241Z,7.83
2017-07-26T00:27:01.886Z,6.30
2017-07-26T00:29:30.072Z,9.40
2017-07-26T00:31:57.593Z,6.57
2017-07-26T00:34:25.216Z,5.40
2017-07-26T00:36:52.760Z,7.47
2017-07-26T00:39:20.315Z,8.60
2017-07-26T00:41:47.863Z,6.50
2017-07-26T00:44:15.380Z,8.03
2017-07-26T00:46:42.875Z,6.20
2017-07-26T00:49:10.979Z,6.60
2017-07-26T00:51:38.479Z,7.83
2017-07-26T00:54:05.996Z,7.40
2017-07-26T00:56:33.564Z,7.90
2017-07-26T00:59:01.224Z,7.60
2017-07-26T01:01:28.727Z,8.93
2017-07-26T01:03:56.307Z,8.47
2017-07-26T01:06:23.815Z,8.37
2017-07-26T01:08:51.783Z,10.43
2017-07-26T01:11:20.154Z,5.07
2017-07-26T01:13:47.666Z,4.97
2017-07-26T01:16:15.171Z,5.07
2017-07-26T01:18:42.963Z,5.20
2017-07-26T01:21:10.491Z,5.20
2017-07-26T01:23:38.003Z,3.63
2017-07-26T01:26:05.798Z,6.43
2017-07-26T01:28:33.366Z,6.50
2017-07-26T01:31:00.862Z,3.97
2017-07-26T01:33:28.636Z,5.07
2017-07-26T01:35:56.132Z,4.07
2017-07-26T01:38:23.630Z,4.73
2017-07-26T01:40:51.151Z,7.30
2017-07-26T01:43:18.703Z,4.47
2017-07-26T01:45:46.246Z,5.13
2017-07-26T01:48:14.066Z,4.17
2017-07-26T01:50:41.569Z,3.80
2017-07-26T01:53:09.075Z,6.50
2017-07-26T01:55:36.867Z,4.00
2017-07-26T01:58:04.367Z,4.90
2017-07-26T02:00:31.947Z,4.00
2017-07-26T02:02:59.631Z,3.93
2017-07-26T02:05:27.201Z,4.23
2017-07-26T02:07:54.703Z,4.03
2017-07-26T02:10:22.499Z,2.80
2017-07-26T02:12:49.996Z,3.00
2017-07-26T02:15:17.502Z,2.87
2017-07-26T02:17:45.296Z,2.53
2017-07-26T02:20:12.802Z,4.40
2017-07-26T02:22:40.294Z,3.13
2017-07-26T02:25:08.202Z,2.70
2017-07-26T02:27:35.718Z,2.70
2017-07-26T02:30:03.255Z,3.40
2017-07-26T02:32:31.155Z,3.50
2017-07-26T02:34:58.658Z,3.77
2017-07-26T02:37:26.167Z,4.37
2017-07-26T02:39:54.123Z,3.60
2017-07-26T02:42:21.668Z,4.10
2017-07-26T02:44:49.171Z,3.07
2017-07-26T02:47:16.758Z,4.10
2017-07-26T02:49:44.271Z,3.83
2017-07-26T02:52:11.774Z,4.80
2017-07-26T02:54:40.019Z,5.70
2017-07-26T02:57:07.520Z,6.47
2017-07-26T02:59:35.032Z,4.70
2017-07-26T03:02:02.956Z,4.30
2017-07-26T03:04:30.483Z,6.03
2017-07-26T03:06:58.042Z,4.03
2017-07-26T03:09:25.851Z,4.40
2017-07-26T03:11:53.358Z,4.00
2017-07-26T03:14:20.862Z,5.33
2017-07-26T03:16:48.426Z,5.03
2017-07-26T03:19:15.925Z,4.97
2017-07-26T03:21:43.434Z,4.93
2017-07-26T03:24:12.340Z,5.30
2017-07-26T03:28:57.640Z,5.67
2017-07-26T03:31:25.633Z,5.57
2017-07-26T03:33:53.569Z,5.53
2017-07-26T03:36:21.273Z,5.73
2017-07-26T03:38:49.206Z,5.37
2017-07-26T03:41:16.851Z,6.33
2017-07-26T03:43:44.371Z,9.03
2017-07-26T03:46:11.968Z,7.33
2017-07-26T03:48:39.478Z,6.40
2017-07-26T03:51:07.067Z,6.50
2017-07-26T03:53:34.941Z,7.20
2017-07-26T03:56:02.492Z,7.30
2017-07-26T03:58:30.246Z,9.40
2017-07-26T04:00:57.907Z,6.83
2017-07-26T04:03:25.491Z,9.20
2017-07-26T04:05:52.998Z,6.90
2017-07-26T04:08:20.800Z,6.10
2017-07-26T04:10:48.452Z,6.57
2017-07-26T04:13:16.003Z,7.33
2017-07-26T04:15:43.582Z,9.27
2017-07-26T04:18:11.096Z,7.30
2017-07-26T04:20:38.895Z,7.53
2017-07-26T04:23:06.392Z,8.03
2017-07-26T04:25:33.903Z,7.87
2017-07-26T04:28:01.702Z,9.90
2017-07-26T04:30:29.212Z,14.13
2017-07-26T04:32:56.750Z,10.83
2017-07-26T04:35:24.422Z,10.40
2017-07-26T04:37:51.923Z,14.57
2017-07-26T04:40:19.443Z,13.33
2017-07-26T04:42:47.007Z,13.13
2017-07-26T04:45:14.526Z,12.13
2017-07-26T04:47:42.032Z,18.83
2017-07-26T04:50:09.964Z,10.93
2017-07-26T04:52:37.495Z,15.60
2017-07-26T04:55:05.003Z,11.30
2017-07-26T04:57:32.911Z,10.37
2017-07-26T05:00:00.414Z,11.60
2017-07-26T05:02:28.351Z,12.00
2017-07-26T05:04:55.899Z,10.30
2017-07-26T05:07:24.233Z,12.17
2017-07-26T05:09:51.749Z,10.33
2017-07-26T05:12:19.782Z,11.93
2017-07-26T05:14:47.277Z,11.10
2017-07-26T05:17:14.786Z,10.23
2017-07-26T05:19:42.358Z,11.77
2017-07-26T05:22:09.866Z,10.27
2017-07-26T05:24:37.363Z,12.37
2017-07-26T05:27:04.910Z,12.13
2017-07-26T05:29:32.419Z,12.73
2017-07-26T05:32:00.352Z,13.20
2017-07-26T05:34:28.144Z,14.30
2017-07-26T05:36:55.698Z,14.30
2017-07-26T05:39:23.232Z,12.77
2017-07-26T05:41:50.836Z,18.10
2017-07-26T05:44:18.487Z,12.97
2017-07-26T05:46:46.039Z,13.33
2017-07-26T05:49:13.947Z,10.70
2017-07-26T05:51:41.474Z,11.77
2017-07-26T05:54:09.119Z,14.73
2017-07-26T05:56:36.930Z,14.10
2017-07-26T05:59:04.526Z,16.57
2017-07-26T06:01:32.208Z,15.57
2017-07-26T06:03:59.789Z,14.83
2017-07-26T06:06:27.294Z,16.70
2017-07-26T06:08:54.813Z,19.80
2017-07-26T06:11:22.369Z,18.87
2017-07-26T06:13:49.915Z,17.23
2017-07-26T06:16:17.456Z,14.93
2017-07-26T06:18:45.078Z,17.17
2017-07-26T06:21:12.591Z,14.33
2017-07-26T06:23:40.490Z,13.60
2017-07-26T06:26:07.999Z,15.40
2017-07-26T06:28:35.515Z,22.20
2017-07-26T06:31:03.315Z,15.27
2017-07-26T06:33:30.835Z,15.70
2017-07-26T06:35:58.355Z,16.57
2017-07-26T06:38:25.914Z,13.97
2017-07-26T06:40:53.446Z,15.53
2017-07-26T06:43:21.086Z,20.30
2017-07-26T06:45:48.650Z,15.57
2017-07-26T06:48:16.176Z,16.00
2017-07-26T06:50:43.686Z,15.23
2017-07-26T06:53:11.507Z,14.80
2017-07-26T06:55:39.214Z,15.13
2017-07-26T06:58:06.783Z,15.37
2017-07-26T07:00:35.498Z,14.23
2017-07-26T07:03:03.083Z,16.97
2017-07-26T07:05:30.591Z,19.60
2017-07-26T07:07:58.474Z,18.03
2017-07-26T07:10:25.984Z,17.17
2017-07-26T07:12:53.505Z,19.90
2017-07-26T07:15:21.036Z,17.00
2017-07-26T07:17:48.553Z,20.40
2017-07-26T07:20:16.103Z,21.47
2017-07-26T07:22:43.654Z,17.80
2017-07-26T07:25:11.172Z,16.33
2017-07-26T07:27:38.693Z,23.67
2017-07-26T07:30:06.664Z,17.90
2017-07-26T07:32:34.582Z,22.23
2017-07-26T07:35:02.189Z,20.43
2017-07-26T07:37:29.707Z,17.60
2017-07-26T07:39:57.275Z,13.50
2017-07-26T07:42:24.791Z,17.40
2017-07-26T07:44:52.320Z,16.00
2017-07-26T07:47:19.886Z,13.77
2017-07-26T07:49:47.392Z,15.70
2017-07-26T07:52:14.907Z,15.30
2017-07-26T07:54:42.704Z,12.70
2017-07-26T07:57:10.220Z,11.90
2017-07-26T07:59:37.736Z,16.80
2017-07-26T08:02:05.518Z,9.50
2017-07-26T08:04:33.023Z,9.20
2017-07-26T08:07:00.541Z,10.07
2017-07-26T08:09:28.123Z,9.03
2017-07-26T08:11:55.651Z,11.07
2017-07-26T08:14:23.164Z,9.60
2017-07-26T08:16:50.724Z,9.60
2017-07-26T08:19:18.242Z,17.07
2017-07-26T08:21:45.762Z,10.60
2017-07-26T08:24:13.356Z,14.10
2017-07-26T08:26:40.864Z,12.00
2017-07-26T08:29:08.366Z,12.67
2017-07-26T08:31:36.219Z,14.30
2017-07-26T08:34:03.778Z,13.33
2017-07-26T08:36:31.282Z,14.37
2017-07-26T08:38:58.838Z,11.87
2017-07-26T08:41:26.356Z,15.97
2017-07-26T08:43:53.876Z,17.10
2017-07-26T08:46:21.806Z,14.50
2017-07-26T08:48:49.347Z,13.57
2017-07-26T08:51:16.854Z,14.20
2017-07-26T08:53:44.407Z,14.00
2017-07-26T08:56:11.930Z,15.00
2017-07-26T08:58:39.446Z,12.77
2017-07-26T09:01:07.365Z,10.97
2017-07-26T09:03:34.890Z,10.90
2017-07-26T09:06:02.400Z,12.77
2017-07-26T09:08:29.950Z,11.83
2017-07-26T09:10:57.482Z,12.50
2017-07-26T09:13:25.012Z,11.37
2017-07-26T09:15:52.582Z,9.97
2017-07-26T09:18:20.123Z,12.63
2017-07-26T09:20:47.698Z,12.47
2017-07-26T09:23:15.255Z,11.50
2017-07-26T09:25:42.783Z,11.20
2017-07-26T09:28:10.300Z,10.20
2017-07-26T09:30:38.117Z,10.50
2017-07-26T09:33:06.023Z,10.20
2017-07-26T09:35:33.538Z,13.97
2017-07-26T09:38:01.086Z,10.57
2017-07-26T09:40:28.602Z,10.83
2017-07-26T09:42:56.102Z,16.03
2017-07-26T09:47:57.943Z,17.00
2017-07-26T09:50:25.726Z,9.20
2017-07-26T09:52:53.251Z,11.00
2017-07-26T09:55:20.771Z,11.07
2017-07-26T09:57:48.360Z,11.17
2017-07-26T10:00:15.887Z,10.13
2017-07-26T10:02:43.387Z,10.90
2017-07-26T10:05:10.944Z,14.33
2017-07-26T10:07:38.450Z,11.83
2017-07-26T10:10:05.976Z,11.70
2017-07-26T10:12:33.553Z,18.10
2017-07-26T10:15:01.111Z,13.97
2017-07-26T10:17:28.620Z,10.20
2017-07-26T10:19:56.180Z,13.87
2017-07-26T10:22:23.682Z,15.00
2017-07-26T10:24:52.811Z,12.50
2017-07-26T10:27:20.371Z,10.47
2017-07-26T10:29:47.875Z,12.67
2017-07-26T10:32:15.449Z,14.30
2017-07-26T10:34:43.356Z,14.03
2017-07-26T10:37:10.884Z,11.63
2017-07-26T10:39:38.397Z,12.57
2017-07-26T10:42:06.279Z,10.97
2017-07-26T10:44:34.448Z,10.43
2017-07-26T10:47:01.974Z,12.77
2017-07-26T10:49:29.535Z,15.47
2017-07-26T10:51:57.051Z,14.07
2017-07-26T10:54:24.577Z,15.27
2017-07-26T10:56:52.136Z,13.80
2017-07-26T10:59:19.641Z,12.33
2017-07-26T11:01:47.151Z,10.40
2017-07-26T11:04:14.939Z,11.03
2017-07-26T11:06:42.928Z,12.00
2017-07-26T11:09:10.456Z,12.47
2017-07-26T11:11:37.963Z,11.30
2017-07-26T11:14:05.858Z,8.80
2017-07-26T11:16:33.363Z,14.00
2017-07-26T11:19:00.905Z,12.47
2017-07-26T11:21:29.371Z,13.83
2017-07-26T11:23:56.895Z,9.50
2017-07-26T11:26:24.412Z,10.57
2017-07-26T11:28:51.979Z,9.40
2017-07-26T11:31:19.486Z,12.63
2017-07-26T11:33:46.995Z,10.43
2017-07-26T11:36:14.796Z,9.87
2017-07-26T11:38:42.306Z,10.10
2017-07-26T11:41:09.811Z,10.27
2017-07-26T11:43:37.357Z,9.97
2017-07-26T11:46:04.871Z,10.53
2017-07-26T11:48:32.382Z,9.77
2017-07-26T11:50:59.989Z,9.80
2017-07-26T11:53:27.500Z,10.17
2017-07-26T11:55:54.999Z,10.50
2017-07-26T11:58:22.881Z,13.53
2017-07-26T12:00:50.399Z,10.30
2017-07-26T12:03:17.922Z,11.53
2017-07-26T12:05:45.466Z,12.63
2017-07-26T12:08:12.967Z,10.70
2017-07-26T12:10:40.471Z,12.50
2017-07-26T12:13:08.322Z,10.20
2017-07-26T12:15:35.823Z,10.37
2017-07-26T12:18:03.370Z,12.57
2017-07-26T12:20:31.168Z,10.33
2017-07-26T12:22:58.673Z,11.03
2017-07-26T12:25:26.204Z,10.40
2017-07-26T12:27:54.386Z,9.73
2017-07-26T12:30:21.889Z,9.40
2017-07-26T12:32:49.401Z,10.40
2017-07-26T12:35:17.118Z,10.43
2017-07-26T12:37:44.668Z,9.60
2017-07-26T12:40:12.186Z,8.50
2017-07-26T12:42:39.752Z,11.70
2017-07-26T12:45:07.532Z,11.47
2017-07-26T12:47:35.051Z,12.23
2017-07-26T12:50:02.579Z,12.67
2017-07-26T12:52:30.415Z,15.10
2017-07-26T12:54:57.931Z,10.03
2017-07-26T12:57:25.431Z,12.50
2017-07-26T12:59:52.975Z,8.20
2017-07-26T13:02:20.480Z,8.60
2017-07-26T13:04:48.008Z,12.13
2017-07-26T13:07:16.007Z,10.30
2017-07-26T13:09:43.518Z,7.30
2017-07-26T13:12:11.045Z,9.10
2017-07-26T13:14:38.615Z,10.53
2017-07-26T13:17:06.127Z,10.77
2017-07-26T13:19:33.842Z,9.60
2017-07-26T13:22:01.671Z,12.87
2017-07-26T13:24:29.189Z,9.00
2017-07-26T13:26:56.703Z,8.37
2017-07-26T13:29:24.255Z,9.57
2017-07-26T13:31:51.780Z,9.63
2017-07-26T13:34:19.306Z,7.87
2017-07-26T13:36:46.887Z,12.00
2017-07-26T13:39:15.807Z,10.60
2017-07-26T13:41:43.337Z,10.00
2017-07-26T13:44:11.129Z,11.10
2017-07-26T13:46:38.643Z,12.87
2017-07-26T13:49:06.154Z,8.53
2017-07-26T13:51:33.726Z,10.40
2017-07-26T13:54:01.234Z,8.03
2017-07-26T13:56:28.734Z,7.60
2017-07-26T13:58:56.640Z,7.53
2017-07-26T14:01:24.165Z,16.30
2017-07-26T14:03:51.667Z,7.90
2017-07-26T14:06:19.494Z,10.20
2017-07-26T14:08:47.015Z,9.40
2017-07-26T14:11:14.518Z,8.00
2017-07-26T14:13:42.090Z,7.63
2017-07-26T14:16:09.601Z,7.60
2017-07-26T14:18:37.109Z,8.37
2017-07-26T14:21:04.680Z,11.27
2017-07-26T14:23:32.197Z,7.20
2017-07-26T14:25:59.720Z,9.07
2017-07-26T14:28:27.643Z,7.60
2017-07-26T14:30:55.731Z,8.67
2017-07-26T14:33:23.271Z,6.63
2017-07-26T14:35:51.210Z,8.77
2017-07-26T14:38:18.950Z,9.17
2017-07-26T14:40:46.534Z,9.50
2017-07-26T14:43:14.081Z,10.30
2017-07-26T14:45:41.586Z,10.30
2017-07-26T14:48:09.106Z,10.90
2017-07-26T14:50:36.707Z,7.70
2017-07-26T14:53:04.215Z,6.90
2017-07-26T14:55:31.719Z,6.17
2017-07-26T14:57:59.279Z,7.63
2017-07-26T15:00:26.792Z,7.43
2017-07-26T15:02:54.301Z,7.07
2017-07-26T15:05:22.139Z,6.60
2017-07-26T15:07:50.067Z,5.57
2017-07-26T15:10:17.631Z,7.93
2017-07-26T15:12:45.182Z,5.90
2017-07-26T15:15:12.713Z,7.70
2017-07-26T15:17:40.231Z,6.67
2017-07-26T15:20:07.919Z,7.80
2017-07-26T15:22:35.490Z,5.73
2017-07-26T15:25:03.063Z,5.07
2017-07-26T15:27:30.631Z,5.23
2017-07-26T15:29:58.139Z,8.43
2017-07-26T15:32:25.738Z,5.90
2017-07-26T15:34:53.443Z,7.37
2017-07-26T15:37:20.966Z,6.47
2017-07-26T15:39:48.519Z,5.40
2017-07-26T15:42:16.024Z,6.50
2017-07-26T15:44:43.686Z,6.07
2017-07-26T15:47:11.271Z,6.70
2017-07-26T15:49:38.803Z,5.00
2017-07-26T15:52:06.430Z,6.13
2017-07-26T15:54:34.327Z,5.70
2017-07-26T15:57:01.831Z,7.50
2017-07-26T15:59:29.363Z,6.57
2017-07-26T16:01:56.931Z,5.83
2017-07-26T16:04:24.664Z,5.80
2017-07-26T16:06:52.455Z,5.53
2017-07-26T16:09:20.006Z,11.70
2017-07-26T16:11:47.522Z,7.50
2017-07-26T16:14:15.628Z,5.23
2017-07-26T16:16:43.518Z,6.40
2017-07-26T16:19:11.024Z,8.03
2017-07-26T16:21:38.539Z,6.70
2017-07-26T16:24:06.425Z,4.83
2017-07-26T16:26:33.934Z,6.20
2017-07-26T16:29:01.966Z,5.50
2017-07-26T16:31:29.980Z,6.97
2017-07-26T16:33:57.514Z,5.90
2017-07-26T16:36:25.181Z,13.67
2017-07-26T16:38:52.687Z,6.63
2017-07-26T16:41:20.188Z,7.10
2017-07-26T16:43:48.039Z,5.20
2017-07-26T16:46:15.563Z,9.67
2017-07-26T16:48:43.279Z,7.20
2017-07-26T16:51:10.879Z,6.43
2017-07-26T16:53:38.388Z,6.37
2017-07-26T16:56:05.896Z,6.10
2017-07-26T16:58:33.439Z,6.10
2017-07-26T17:01:01.039Z,9.07
2017-07-26T17:03:28.546Z,6.80
2017-07-26T17:05:56.103Z,4.40
2017-07-26T17:08:23.604Z,5.50
2017-07-26T17:10:51.643Z,7.57
2017-07-26T17:13:19.542Z,6.83
2017-07-26T17:15:47.044Z,6.03
2017-07-26T17:18:14.555Z,5.20
2017-07-26T17:20:42.349Z,5.43
2017-07-26T17:23:10.121Z,5.83
2017-07-26T17:25:37.631Z,5.63
2017-07-26T17:28:05.188Z,5.30
2017-07-26T17:30:32.961Z,5.17
2017-07-26T17:33:00.474Z,5.30
2017-07-26T17:35:28.078Z,5.70
2017-07-26T17:37:55.671Z,9.13
2017-07-26T17:40:23.219Z,6.60
2017-07-26T17:42:51.193Z,9.43
2017-07-26T17:45:18.738Z,8.77
2017-07-26T17:47:46.340Z,6.60
2017-07-26T17:50:14.125Z,5.50
2017-07-26T17:52:41.716Z,5.50
2017-07-26T17:55:09.239Z,9.80
2017-07-26T17:57:37.103Z,6.27
2017-07-26T18:00:04.654Z,5.63
2017-07-26T18:02:32.154Z,7.77
2017-07-26T18:04:59.951Z,5.07
2017-07-26T18:07:27.468Z,5.00
2017-07-26T18:09:55.268Z,6.83
2017-07-26T18:12:22.882Z,6.50
2017-07-26T18:14:50.438Z,4.80
2017-07-26T18:17:17.986Z,5.30
2017-07-26T18:19:45.797Z,6.73
2017-07-26T18:22:13.815Z,5.50
2017-07-26T18:24:41.568Z,6.40
2017-07-26T18:27:09.138Z,6.03
2017-07-26T18:29:36.839Z,7.30
2017-07-26T18:32:04.668Z,5.80
2017-07-26T18:34:32.211Z,5.53
2017-07-26T18:36:59.734Z,5.83
2017-07-26T18:39:27.650Z,7.50
2017-07-26T18:41:55.159Z,7.50
2017-07-26T18:44:22.791Z,8.47
2017-07-26T18:46:50.363Z,5.40
2017-07-26T18:49:17.892Z,10.63
2017-07-26T18:51:45.574Z,4.63
2017-07-26T18:54:13.490Z,13.17
2017-07-26T18:56:41.054Z,6.60
2017-07-26T18:59:08.559Z,6.70
2017-07-26T19:01:36.876Z,7.40
2017-07-26T19:04:04.500Z,6.53
2017-07-26T19:06:32.020Z,5.50
2017-07-26T19:08:59.644Z,9.10
2017-07-26T19:11:28.501Z,6.80
2017-07-26T19:13:56.472Z,6.87
2017-07-26T19:16:24.002Z,6.23
2017-07-26T19:18:51.710Z,6.40
2017-07-26T19:21:19.275Z,9.40
2017-07-26T19:23:46.829Z,5.73
2017-07-26T19:26:14.479Z,9.77
2017-07-26T19:28:42.047Z,8.53
2017-07-26T19:31:09.584Z,7.93
2017-07-26T19:33:37.336Z,5.70
2017-07-26T19:36:04.930Z,8.60
2017-07-26T19:38:32.448Z,6.63
2017-07-26T19:40:59.979Z,9.13
2017-07-26T19:43:27.566Z,7.60
2017-07-26T19:45:55.079Z,7.10
2017-07-26T19:48:22.659Z,7.63
2017-07-26T19:50:50.456Z,9.90
2017-07-26T19:53:17.955Z,9.80
2017-07-26T19:55:45.610Z,6.87
2017-07-26T19:58:13.179Z,6.90
2017-07-26T20:00:40.687Z,7.80
2017-07-26T20:03:08.233Z,8.07
2017-07-26T20:05:35.853Z,10.73
2017-07-26T20:08:03.354Z,8.83
2017-07-26T20:10:31.148Z,9.00
2017-07-26T20:12:58.698Z,5.23
2017-07-26T20:15:26.195Z,8.13
2017-07-26T20:17:53.723Z,7.20
2017-07-26T20:20:21.616Z,9.20
2017-07-26T20:22:49.116Z,6.40
2017-07-26T20:25:16.615Z,13.23
2017-07-26T20:27:44.443Z,8.03
2017-07-26T20:30:12.036Z,7.30
2017-07-26T20:32:39.922Z,8.63
2017-07-26T20:35:07.479Z,7.60
2017-07-26T20:37:34.994Z,8.93
2017-07-26T20:40:02.510Z,9.80
2017-07-26T20:42:30.449Z,9.00
2017-07-26T20:44:57.955Z,11.00
2017-07-26T20:47:25.519Z,14.47
2017-07-26T20:49:53.110Z,7.47
2017-07-26T20:52:21.235Z,9.20
2017-07-26T20:54:48.818Z,10.57
2017-07-26T20:57:16.942Z,6.77
2017-07-26T20:59:44.658Z,8.43
2017-07-26T21:02:12.205Z,9.57
2017-07-26T21:04:39.838Z,11.73
2017-07-26T21:07:07.426Z,38.03
2017-07-26T21:09:34.953Z,10.37
2017-07-26T21:12:02.539Z,12.63
2017-07-26T21:14:30.063Z,9.63
2017-07-26T21:16:57.602Z,16.27
2017-07-26T21:19:25.157Z,10.77
2017-07-26T21:21:52.754Z,11.40
2017-07-26T21:24:20.292Z,11.80
2017-07-26T21:26:47.886Z,12.90
2017-07-26T21:29:15.428Z,13.23
2017-07-26T21:31:43.006Z,17.30
2017-07-26T21:34:10.559Z,18.17
2017-07-26T21:36:38.066Z,10.73
2017-07-26T21:39:05.570Z,22.33
2017-07-26T21:41:33.437Z,13.33
2017-07-26T21:44:00.991Z,12.67
2017-07-26T21:46:28.490Z,12.90
2017-07-26T21:48:56.494Z,16.40
2017-07-26T21:51:23.994Z,15.13
2017-07-26T21:53:51.502Z,13.03
2017-07-26T21:56:19.394Z,13.73
2017-07-26T21:58:46.918Z,13.70
2017-07-26T22:01:14.538Z,14.60
2017-07-26T22:03:42.134Z,13.77
2017-07-26T22:06:09.643Z,12.23
2017-07-26T22:08:37.148Z,17.20
2017-07-26T22:11:04.858Z,27.20
2017-07-26T22:13:32.358Z,14.33
2017-07-26T22:15:59.875Z,15.00
2017-07-26T22:18:27.202Z,13.67
2017-07-26T22:20:55.424Z,14.67
2017-07-26T22:23:22.935Z,13.60
2017-07-26T22:25:50.567Z,15.03
2017-07-26T22:28:18.119Z,14.90
2017-07-26T22:30:45.779Z,18.20
2017-07-26T22:33:13.610Z,15.20
2017-07-26T22:35:41.178Z,13.73
2017-07-26T22:38:08.707Z,14.53
2017-07-26T22:40:36.528Z,17.30
2017-07-26T22:43:04.045Z,15.07
2017-07-26T22:45:31.559Z,17.50
2017-07-26T22:47:59.551Z,17.23
2017-07-26T22:50:27.066Z,18.50
2017-07-26T22:52:54.578Z,18.97
2017-07-26T22:55:22.172Z,21.53
2017-07-26T22:57:49.785Z,20.80
2017-07-26T23:00:17.305Z,17.50
2017-07-26T23:02:44.871Z,20.33
2017-07-26T23:05:12.541Z,20.10
2017-07-26T23:07:40.055Z,17.73
2017-07-26T23:10:08.029Z,24.03
2017-07-26T23:12:35.725Z,24.03
2017-07-26T23:15:03.315Z,21.70
2017-07-26T23:17:30.891Z,17.50
2017-07-26T23:19:58.582Z,19.83
2017-07-26T23:22:26.093Z,16.70
2017-07-26T23:24:53.829Z,15.83
2017-07-26T23:27:21.327Z,16.20
2017-07-26T23:29:48.838Z,15.20
2017-07-26T23:32:16.739Z,17.47
2017-07-26T23:34:44.267Z,16.20
2017-07-26T23:37:11.784Z,18.50
2017-07-26T23:39:39.615Z,22.10
2017-07-26T23:42:07.177Z,14.30
2017-07-26T23:44:34.726Z,20.10
2017-07-26T23:47:02.618Z,15.63
2017-07-26T23:49:30.130Z,21.10
2017-07-26T23:51:57.635Z,17.47
2017-07-26T23:54:25.214Z,21.10
2017-07-26T23:56:52.719Z,15.60
2017-07-26T23:59:20.274Z,21.33
